createdAt,value
2017-12-21T00:00:39.906Z,95.54
2017-12-21T00:01:42.440Z,95.00
2017-12-21T00:02:44.922Z,94.74
2017-12-21T00:03:47.379Z,94.80
2017-12-21T00:04:49.856Z,94.94
2017-12-21T00:05:52.339Z,95.06
2017-12-21T00:06:54.799Z,95.03
2017-12-21T00:07:57.271Z,95.10
2017-12-21T00:09:01.075Z,95.44
2017-12-21T00:10:03.566Z,95.50
2017-12-21T00:11:06.049Z,95.67
2017-12-21T00:12:08.529Z,95.70
2017-12-21T00:13:11.124Z,95.76
2017-12-21T00:14:13.743Z,95.63
2017-12-21T00:15:16.236Z,95.84
2017-12-21T00:16:18.811Z,95.57
2017-12-21T00:17:21.270Z,95.49
2017-12-21T00:18:23.730Z,95.84
2017-12-21T00:19:26.190Z,95.78
2017-12-21T00:20:28.665Z,95.88
2017-12-21T00:21:31.122Z,96.03
2017-12-21T00:22:40.562Z,96.41
2017-12-21T00:23:43.019Z,96.19
2017-12-21T00:24:45.549Z,95.98
2017-12-21T00:25:48.011Z,95.59
2017-12-21T00:26:50.477Z,95.21
2017-12-21T00:27:52.994Z,95.12
2017-12-21T00:28:55.455Z,95.47
2017-12-21T00:29:57.928Z,95.68
2017-12-21T00:31:00.387Z,96.10
2017-12-21T00:32:02.879Z,96.24
2017-12-21T00:33:05.366Z,96.15
2017-12-21T00:34:07.861Z,96.10
2017-12-21T00:35:10.341Z,95.52
2017-12-21T00:36:12.798Z,95.05
2017-12-21T00:37:15.276Z,95.22
2017-12-21T00:38:17.768Z,95.27
2017-12-21T00:39:20.226Z,95.15
2017-12-21T00:40:22.704Z,94.94
2017-12-21T00:41:25.176Z,94.71
2017-12-21T00:42:27.638Z,94.92
2017-12-21T00:43:30.135Z,94.98
2017-12-21T00:44:32.617Z,94.79
2017-12-21T00:45:35.092Z,94.70
2017-12-21T00:46:37.569Z,94.91
2017-12-21T00:47:40.032Z,95.39
2017-12-21T00:48:42.526Z,95.55
2017-12-21T00:49:44.986Z,95.32
2017-12-21T00:50:47.467Z,95.21
2017-12-21T00:51:49.945Z,95.18
2017-12-21T00:52:52.423Z,94.85
2017-12-21T00:53:54.934Z,94.70
2017-12-21T00:54:57.416Z,94.59
2017-12-21T00:55:59.892Z,94.91
2017-12-21T00:57:02.369Z,95.22
2017-12-21T00:58:04.834Z,95.39
2017-12-21T00:59:07.328Z,95.45
2017-12-21T01:00:09.812Z,95.67
2017-12-21T01:01:12.269Z,96.21
2017-12-21T01:02:14.747Z,96.39
2017-12-21T01:03:17.244Z,96.40
2017-12-21T01:04:19.752Z,96.32
2017-12-21T01:05:22.230Z,96.25
2017-12-21T01:06:24.686Z,96.25
2017-12-21T01:07:27.144Z,96.35
2017-12-21T01:08:29.659Z,96.46
2017-12-21T01:09:32.112Z,96.49
2017-12-21T01:10:34.574Z,96.61
2017-12-21T01:11:37.054Z,96.73
2017-12-21T01:12:39.518Z,97.02
2017-12-21T01:13:42.005Z,97.02
2017-12-21T01:14:44.500Z,96.98
2017-12-21T01:15:46.979Z,97.05
2017-12-21T01:16:49.441Z,97.24
2017-12-21T01:17:51.918Z,96.91
2017-12-21T01:18:54.393Z,96.46
2017-12-21T01:19:56.933Z,96.41
2017-12-21T01:20:59.403Z,96.67
2017-12-21T01:22:01.876Z,96.54
2017-12-21T01:23:04.339Z,96.09
2017-12-21T01:24:06.818Z,95.46
2017-12-21T01:25:09.321Z,95.33
2017-12-21T01:26:11.782Z,95.60
2017-12-21T01:27:14.239Z,96.03
2017-12-21T01:28:16.716Z,96.33
2017-12-21T01:29:19.174Z,96.67
2017-12-21T01:30:21.677Z,97.09
2017-12-21T01:31:24.143Z,96.89
2017-12-21T01:32:26.624Z,96.58
2017-12-21T01:33:29.084Z,96.51
2017-12-21T01:34:31.556Z,96.47
2017-12-21T01:35:34.047Z,96.40
2017-12-21T01:36:36.518Z,96.48
2017-12-21T01:37:38.979Z,96.69
2017-12-21T01:38:41.452Z,96.83
2017-12-21T01:39:43.929Z,97.10
2017-12-21T01:40:46.421Z,96.88
2017-12-21T01:41:48.888Z,96.73
2017-12-21T01:42:51.351Z,96.69
2017-12-21T01:43:53.833Z,96.72
2017-12-21T01:44:56.304Z,96.68
2017-12-21T01:45:58.794Z,96.60
2017-12-21T01:47:01.268Z,96.33
2017-12-21T01:48:03.741Z,96.47
2017-12-21T01:49:06.199Z,96.60
2017-12-21T01:50:08.677Z,96.68
2017-12-21T01:51:11.154Z,96.43
2017-12-21T01:52:13.630Z,96.45
2017-12-21T01:53:16.109Z,96.56
2017-12-21T01:54:18.583Z,96.53
2017-12-21T01:55:21.054Z,96.42
2017-12-21T01:56:23.597Z,96.50
2017-12-21T01:57:26.069Z,96.71
2017-12-21T01:58:28.530Z,96.85
2017-12-21T01:59:31.079Z,96.86
2017-12-21T02:00:33.588Z,96.96
2017-12-21T02:01:36.085Z,97.00
2017-12-21T02:02:38.645Z,97.07
2017-12-21T02:03:41.102Z,97.14
2017-12-21T02:04:43.558Z,97.38
2017-12-21T02:05:47.242Z,97.25
2017-12-21T02:06:49.735Z,97.26
2017-12-21T02:07:52.212Z,97.27
2017-12-21T02:08:54.683Z,97.25
2017-12-21T02:09:57.146Z,97.21
2017-12-21T02:10:59.619Z,97.34
2017-12-21T02:12:02.125Z,97.18
2017-12-21T02:13:04.600Z,97.18
2017-12-21T02:14:07.066Z,97.25
2017-12-21T02:15:09.526Z,97.10
2017-12-21T02:16:11.982Z,97.11
2017-12-21T02:17:14.475Z,97.15
2017-12-21T02:18:16.934Z,97.10
2017-12-21T02:19:19.398Z,97.28
2017-12-21T02:20:21.877Z,97.45
2017-12-21T02:21:24.338Z,97.37
2017-12-21T02:22:31.552Z,97.35
2017-12-21T02:23:34.038Z,97.51
2017-12-21T02:24:36.521Z,97.35
2017-12-21T02:25:40.583Z,97.25
2017-12-21T02:26:43.046Z,97.01
2017-12-21T02:27:45.541Z,96.82
2017-12-21T02:28:48.006Z,96.70
2017-12-21T02:29:50.518Z,96.72
2017-12-21T02:30:53.010Z,96.62
2017-12-21T02:31:55.528Z,96.06
2017-12-21T02:32:58.011Z,94.92
2017-12-21T02:34:00.490Z,94.59
2017-12-21T02:35:02.972Z,94.86
2017-12-21T02:36:07.268Z,95.25
2017-12-21T02:37:09.727Z,95.36
2017-12-21T02:38:12.236Z,95.52
2017-12-21T02:39:14.750Z,95.59
2017-12-21T02:40:17.223Z,95.66
2017-12-21T02:41:19.685Z,96.00
2017-12-21T02:42:22.168Z,95.73
2017-12-21T02:43:24.648Z,94.76
2017-12-21T02:44:27.125Z,94.81
2017-12-21T02:45:29.593Z,94.93
2017-12-21T02:46:41.630Z,94.44
2017-12-21T02:47:44.092Z,94.24
2017-12-21T02:48:46.562Z,94.47
2017-12-21T02:49:49.609Z,94.12
2017-12-21T02:50:52.104Z,94.19
2017-12-21T02:51:54.600Z,94.42
2017-12-21T02:52:57.071Z,94.50
2017-12-21T02:53:59.545Z,94.56
2017-12-21T02:55:02.007Z,94.52
2017-12-21T02:56:04.512Z,94.80
2017-12-21T02:57:06.993Z,95.32
2017-12-21T02:58:09.455Z,95.31
2017-12-21T02:59:11.941Z,95.67
2017-12-21T03:00:20.800Z,95.25
2017-12-21T03:01:23.278Z,94.77
2017-12-21T03:02:25.776Z,94.44
2017-12-21T03:03:28.243Z,94.59
2017-12-21T03:04:30.699Z,95.04
2017-12-21T03:05:33.254Z,95.33
2017-12-21T03:06:35.791Z,95.71
2017-12-21T03:07:38.272Z,95.75
2017-12-21T03:08:42.542Z,95.80
2017-12-21T03:09:45.052Z,95.68
2017-12-21T03:10:47.519Z,95.71
2017-12-21T03:11:50.003Z,95.85
2017-12-21T03:12:52.540Z,95.57
2017-12-21T03:13:55.017Z,95.49
2017-12-21T03:14:57.493Z,95.35
2017-12-21T03:15:59.979Z,95.43
2017-12-21T03:17:02.434Z,95.40
2017-12-21T03:18:04.892Z,95.63
2017-12-21T03:19:07.372Z,95.73
2017-12-21T03:20:09.956Z,95.91
2017-12-21T03:21:12.419Z,96.11
2017-12-21T03:22:14.964Z,96.16
2017-12-21T03:23:17.451Z,96.34
2017-12-21T03:24:19.987Z,96.48
2017-12-21T03:25:22.460Z,96.42
2017-12-21T03:26:24.930Z,96.24
2017-12-21T03:27:27.409Z,96.46
2017-12-21T03:28:29.888Z,96.42
2017-12-21T03:29:32.372Z,96.15
2017-12-21T03:30:34.830Z,95.76
2017-12-21T03:31:37.305Z,95.95
2017-12-21T03:32:39.784Z,95.91
2017-12-21T03:33:42.250Z,95.87
2017-12-21T03:34:44.749Z,96.00
2017-12-21T03:35:47.219Z,95.87
2017-12-21T03:36:49.681Z,95.91
2017-12-21T03:37:52.142Z,96.06
2017-12-21T03:38:54.602Z,96.20
2017-12-21T03:39:57.082Z,96.42
2017-12-21T03:40:59.555Z,96.54
2017-12-21T03:42:02.027Z,96.73
2017-12-21T03:43:04.505Z,96.63
2017-12-21T03:44:07.091Z,96.50
2017-12-21T03:45:09.564Z,96.54
2017-12-21T03:46:12.026Z,96.56
2017-12-21T03:47:14.494Z,96.75
2017-12-21T03:48:16.972Z,97.00
2017-12-21T03:49:19.426Z,96.84
2017-12-21T03:50:21.894Z,96.73
2017-12-21T03:51:24.374Z,96.20
2017-12-21T03:52:26.850Z,96.08
2017-12-21T03:53:29.307Z,96.26
2017-12-21T03:54:31.774Z,96.34
2017-12-21T03:55:34.263Z,96.66
2017-12-21T03:56:36.721Z,96.71
2017-12-21T03:57:39.181Z,96.74
2017-12-21T03:58:41.646Z,96.47
2017-12-21T03:59:44.143Z,95.44
2017-12-21T04:00:46.627Z,95.17
2017-12-21T04:01:49.104Z,95.08
2017-12-21T04:02:51.608Z,94.55
2017-12-21T04:03:54.089Z,94.58
2017-12-21T04:04:56.552Z,94.76
2017-12-21T04:05:59.037Z,95.25
2017-12-21T04:07:01.513Z,95.57
2017-12-21T04:08:03.976Z,95.05
2017-12-21T04:09:06.448Z,95.04
2017-12-21T04:10:08.924Z,95.01
2017-12-21T04:11:11.402Z,94.58
2017-12-21T04:12:13.866Z,94.84
2017-12-21T04:13:16.327Z,94.88
2017-12-21T04:14:18.795Z,94.44
2017-12-21T04:15:21.259Z,94.50
2017-12-21T04:16:23.733Z,94.78
2017-12-21T04:17:26.195Z,94.86
2017-12-21T04:18:28.675Z,94.45
2017-12-21T04:19:31.139Z,94.34
2017-12-21T04:20:33.601Z,94.12
2017-12-21T04:21:36.059Z,94.58
2017-12-21T04:22:38.533Z,94.39
2017-12-21T04:23:41.013Z,94.74
2017-12-21T04:24:43.492Z,95.08
2017-12-21T04:25:45.960Z,95.24
2017-12-21T04:26:48.437Z,95.16
2017-12-21T04:27:50.894Z,95.37
2017-12-21T04:28:53.373Z,95.11
2017-12-21T04:29:55.852Z,95.18
2017-12-21T04:30:58.331Z,95.45
2017-12-21T04:32:00.790Z,95.57
2017-12-21T04:33:03.269Z,95.62
2017-12-21T04:34:05.730Z,95.67
2017-12-21T04:35:08.199Z,95.68
2017-12-21T04:36:10.677Z,95.64
2017-12-21T04:37:13.160Z,95.72
2017-12-21T04:38:15.637Z,95.82
2017-12-21T04:39:18.109Z,95.96
2017-12-21T04:40:20.571Z,96.15
2017-12-21T04:41:23.183Z,96.19
2017-12-21T04:42:25.642Z,96.19
2017-12-21T04:43:28.106Z,96.24
2017-12-21T04:44:30.569Z,96.07
2017-12-21T04:45:33.042Z,95.84
2017-12-21T04:46:35.502Z,95.80
2017-12-21T04:47:37.983Z,95.72
2017-12-21T04:48:40.455Z,95.73
2017-12-21T04:49:42.914Z,96.04
2017-12-21T04:50:45.378Z,95.86
2017-12-21T04:51:47.862Z,95.68
2017-12-21T04:52:50.318Z,95.68
2017-12-21T04:53:52.801Z,95.69
2017-12-21T04:54:55.269Z,95.67
2017-12-21T04:55:57.756Z,95.71
2017-12-21T04:57:00.215Z,95.58
2017-12-21T04:58:02.700Z,95.60
2017-12-21T04:59:05.158Z,95.59
2017-12-21T05:00:07.615Z,95.79
2017-12-21T05:01:10.086Z,95.85
2017-12-21T05:02:12.551Z,95.88
2017-12-21T05:03:15.024Z,95.69
2017-12-21T05:04:17.525Z,95.62
2017-12-21T05:05:19.984Z,95.57
2017-12-21T05:06:22.456Z,95.56
2017-12-21T05:07:24.918Z,95.58
2017-12-21T05:08:27.381Z,95.63
2017-12-21T05:09:29.852Z,95.72
2017-12-21T05:10:32.331Z,95.59
2017-12-21T05:11:34.806Z,95.65
2017-12-21T05:12:37.288Z,95.57
2017-12-21T05:13:39.765Z,95.40
2017-12-21T05:14:42.244Z,95.19
2017-12-21T05:15:44.716Z,95.08
2017-12-21T05:16:47.174Z,95.15
2017-12-21T05:17:49.648Z,95.32
2017-12-21T05:18:52.112Z,95.37
2017-12-21T05:19:54.600Z,95.46
2017-12-21T05:20:57.059Z,95.76
2017-12-21T05:21:59.532Z,95.61
2017-12-21T05:23:01.992Z,95.25
2017-12-21T05:24:04.472Z,95.29
2017-12-21T05:25:06.948Z,95.32
2017-12-21T05:26:09.410Z,95.18
2017-12-21T05:27:11.866Z,95.20
2017-12-21T05:28:14.330Z,95.44
2017-12-21T05:29:16.801Z,95.34
2017-12-21T05:30:19.262Z,95.33
2017-12-21T05:31:21.742Z,95.51
2017-12-21T05:32:24.221Z,95.18
2017-12-21T05:33:26.704Z,95.10
2017-12-21T05:34:29.185Z,95.17
2017-12-21T05:35:31.657Z,95.30
2017-12-21T05:36:34.133Z,95.45
2017-12-21T05:37:36.612Z,95.39
2017-12-21T05:38:39.091Z,95.26
2017-12-21T05:39:41.565Z,95.30
2017-12-21T05:40:44.029Z,95.11
2017-12-21T05:41:46.504Z,95.05
2017-12-21T05:42:48.976Z,95.20
2017-12-21T05:43:51.435Z,95.20
2017-12-21T05:44:53.926Z,95.39
2017-12-21T05:45:56.386Z,95.67
2017-12-21T05:46:58.864Z,95.67
2017-12-21T05:48:01.341Z,95.66
2017-12-21T05:49:03.817Z,95.49
2017-12-21T05:50:06.292Z,95.32
2017-12-21T05:51:08.772Z,95.51
2017-12-21T05:52:11.255Z,95.62
2017-12-21T05:53:13.715Z,95.46
2017-12-21T05:54:16.232Z,95.56
2017-12-21T05:55:18.658Z,95.70
2017-12-21T05:56:21.191Z,95.67
2017-12-21T05:57:23.654Z,95.71
2017-12-21T05:58:26.127Z,95.79
2017-12-21T05:59:28.636Z,95.41
2017-12-21T06:00:31.117Z,95.15
2017-12-21T06:01:33.598Z,95.17
2017-12-21T06:02:36.075Z,95.18
2017-12-21T06:03:38.574Z,95.25
2017-12-21T06:04:41.057Z,95.16
2017-12-21T06:05:43.533Z,95.14
2017-12-21T06:06:46.008Z,95.40
2017-12-21T06:07:48.466Z,95.38
2017-12-21T06:08:50.922Z,95.20
2017-12-21T06:09:53.424Z,95.13
2017-12-21T06:10:55.915Z,95.04
2017-12-21T06:11:58.378Z,95.04
2017-12-21T06:13:00.862Z,94.86
2017-12-21T06:14:03.325Z,94.98
2017-12-21T06:15:05.812Z,94.97
2017-12-21T06:16:08.289Z,94.93
2017-12-21T06:17:10.742Z,94.95
2017-12-21T06:18:13.212Z,95.07
2017-12-21T06:19:15.723Z,95.16
2017-12-21T06:20:18.186Z,95.08
2017-12-21T06:21:20.651Z,95.38
2017-12-21T06:22:23.218Z,95.12
2017-12-21T06:23:25.695Z,94.86
2017-12-21T06:24:28.198Z,94.74
2017-12-21T06:25:30.662Z,94.71
2017-12-21T06:26:33.130Z,94.65
2017-12-21T06:27:35.590Z,94.58
2017-12-21T06:28:38.108Z,94.67
2017-12-21T06:29:40.583Z,94.80
2017-12-21T06:30:43.090Z,95.10
2017-12-21T06:31:45.578Z,95.36
2017-12-21T06:32:48.039Z,95.52
2017-12-21T06:33:50.494Z,95.68
2017-12-21T06:34:53.026Z,95.93
2017-12-21T06:35:55.501Z,95.87
2017-12-21T06:36:57.959Z,95.74
2017-12-21T06:38:00.492Z,95.84
2017-12-21T06:39:02.970Z,96.03
2017-12-21T06:40:05.438Z,95.85
2017-12-21T06:41:07.907Z,95.78
2017-12-21T06:42:10.434Z,95.94
2017-12-21T06:43:12.918Z,95.95
2017-12-21T06:44:15.382Z,95.92
2017-12-21T06:45:17.844Z,96.06
2017-12-21T06:46:20.322Z,96.12
2017-12-21T06:47:22.840Z,96.05
2017-12-21T06:48:25.309Z,96.07
2017-12-21T06:49:27.770Z,95.69
2017-12-21T06:50:30.230Z,95.76
2017-12-21T06:51:32.722Z,95.53
2017-12-21T06:52:35.195Z,95.57
2017-12-21T06:53:37.742Z,95.67
2017-12-21T06:54:40.293Z,95.71
2017-12-21T06:55:42.768Z,95.54
2017-12-21T06:56:45.234Z,95.58
2017-12-21T06:57:47.739Z,95.43
2017-12-21T06:58:50.209Z,95.38
2017-12-21T06:59:52.724Z,95.25
2017-12-21T07:00:55.195Z,95.22
2017-12-21T07:01:57.660Z,95.39
2017-12-21T07:03:00.132Z,95.28
2017-12-21T07:04:02.594Z,95.35
2017-12-21T07:05:05.053Z,95.41
2017-12-21T07:06:07.534Z,95.22
2017-12-21T07:07:10.028Z,95.23
2017-12-21T07:08:12.512Z,95.62
2017-12-21T07:09:14.995Z,95.78
2017-12-21T07:10:17.606Z,95.56
2017-12-21T07:11:20.085Z,95.27
2017-12-21T07:12:22.565Z,95.41
2017-12-21T07:13:25.039Z,95.69
2017-12-21T07:14:27.506Z,95.89
2017-12-21T07:15:29.980Z,95.76
2017-12-21T07:16:32.470Z,95.08
2017-12-21T07:17:34.987Z,94.85
2017-12-21T07:18:37.545Z,94.98
2017-12-21T07:19:40.014Z,95.08
2017-12-21T07:20:42.497Z,95.08
2017-12-21T07:21:44.962Z,95.08
2017-12-21T07:22:47.448Z,95.08
2017-12-21T07:23:49.925Z,95.04
2017-12-21T07:24:52.391Z,95.29
2017-12-21T07:25:54.854Z,95.66
2017-12-21T07:26:57.335Z,96.11
2017-12-21T07:28:00.115Z,95.79
2017-12-21T07:29:02.616Z,95.55
2017-12-21T07:30:05.090Z,95.23
2017-12-21T07:31:07.560Z,95.13
2017-12-21T07:32:10.035Z,95.03
2017-12-21T07:33:12.508Z,95.05
2017-12-21T07:34:14.996Z,95.24
2017-12-21T07:35:17.473Z,95.65
2017-12-21T07:36:19.939Z,95.24
2017-12-21T07:37:22.416Z,95.25
2017-12-21T07:38:24.986Z,94.92
2017-12-21T07:39:27.473Z,95.06
2017-12-21T07:40:29.945Z,95.36
2017-12-21T07:41:32.461Z,94.92
2017-12-21T07:42:34.920Z,94.96
2017-12-21T07:43:37.731Z,95.03
2017-12-21T07:44:40.195Z,95.09
2017-12-21T07:45:42.703Z,95.34
2017-12-21T07:46:45.262Z,95.36
2017-12-21T07:47:47.719Z,95.23
2017-12-21T07:48:50.182Z,94.71
2017-12-21T07:49:52.666Z,94.64
2017-12-21T07:50:55.141Z,94.35
2017-12-21T07:51:57.613Z,94.47
2017-12-21T07:53:00.088Z,94.62
2017-12-21T07:54:02.563Z,94.46
2017-12-21T07:55:05.044Z,94.30
2017-12-21T07:56:07.533Z,94.43
2017-12-21T07:57:09.990Z,94.33
2017-12-21T07:58:12.453Z,94.55
2017-12-21T07:59:14.920Z,94.67
2017-12-21T08:00:17.384Z,94.68
2017-12-21T08:01:19.846Z,94.61
2017-12-21T08:02:22.321Z,94.70
2017-12-21T08:03:24.999Z,94.35
2017-12-21T08:04:27.938Z,94.10
2017-12-21T08:05:30.395Z,94.29
2017-12-21T08:06:32.854Z,94.50
2017-12-21T08:07:35.313Z,94.25
2017-12-21T08:08:37.786Z,94.23
2017-12-21T08:09:40.289Z,94.32
2017-12-21T08:10:42.783Z,94.44
2017-12-21T08:11:45.261Z,94.39
2017-12-21T08:12:47.720Z,94.41
2017-12-21T08:13:50.196Z,94.62
2017-12-21T08:14:52.676Z,94.16
2017-12-21T08:15:55.149Z,94.33
2017-12-21T08:16:57.615Z,95.11
2017-12-21T08:18:00.084Z,95.19
2017-12-21T08:19:02.556Z,94.69
2017-12-21T08:20:05.141Z,94.63
2017-12-21T08:21:07.603Z,94.32
2017-12-21T08:22:10.089Z,94.02
2017-12-21T08:23:12.561Z,94.31
2017-12-21T08:24:15.044Z,94.38
2017-12-21T08:25:17.520Z,94.59
2017-12-21T08:26:20.022Z,94.59
2017-12-21T08:27:22.563Z,94.35
2017-12-21T08:28:25.045Z,94.25
2017-12-21T08:29:27.516Z,94.38
2017-12-21T08:30:30.006Z,94.47
2017-12-21T08:31:32.502Z,94.48
2017-12-21T08:32:34.987Z,94.35
2017-12-21T08:33:37.472Z,94.62
2017-12-21T08:34:39.934Z,94.88
2017-12-21T08:35:42.414Z,94.88
2017-12-21T08:36:44.937Z,94.63
2017-12-21T08:37:47.412Z,94.37
2017-12-21T08:38:49.913Z,94.21
2017-12-21T08:39:52.381Z,94.29
2017-12-21T08:40:54.856Z,94.12
2017-12-21T08:41:57.333Z,94.29
2017-12-21T08:42:59.839Z,94.50
2017-12-21T08:44:02.330Z,94.49
2017-12-21T08:45:04.791Z,94.35
2017-12-21T08:46:07.256Z,94.59
2017-12-21T08:47:09.718Z,94.88
2017-12-21T08:48:12.190Z,94.99
2017-12-21T08:49:14.676Z,95.01
2017-12-21T08:50:17.143Z,94.57
2017-12-21T08:51:19.620Z,93.82
2017-12-21T08:52:22.088Z,93.79
2017-12-21T08:53:24.565Z,94.42
2017-12-21T08:54:27.022Z,94.65
2017-12-21T08:55:29.505Z,94.81
2017-12-21T08:56:31.970Z,95.15
2017-12-21T08:57:34.536Z,94.99
2017-12-21T08:58:37.016Z,94.79
2017-12-21T08:59:39.487Z,94.24
2017-12-21T09:00:41.951Z,94.03
2017-12-21T09:01:44.439Z,93.97
2017-12-21T09:02:46.926Z,94.01
2017-12-21T09:03:49.404Z,94.11
2017-12-21T09:04:51.946Z,94.27
2017-12-21T09:05:54.425Z,94.65
2017-12-21T09:06:56.882Z,94.73
2017-12-21T09:07:59.724Z,95.02
2017-12-21T09:09:02.200Z,94.17
2017-12-21T09:10:04.743Z,93.86
2017-12-21T09:11:07.207Z,93.81
2017-12-21T09:12:09.674Z,93.77
2017-12-21T09:13:12.149Z,93.99
2017-12-21T09:14:14.615Z,94.21
2017-12-21T09:15:17.327Z,94.42
2017-12-21T09:16:20.961Z,94.35
2017-12-21T09:17:23.845Z,94.30
2017-12-21T09:18:26.315Z,94.40
2017-12-21T09:19:28.788Z,94.60
2017-12-21T09:20:31.268Z,94.66
2017-12-21T09:21:33.730Z,94.92
2017-12-21T09:22:36.211Z,94.96
2017-12-21T09:23:43.123Z,94.80
2017-12-21T09:24:45.594Z,94.62
2017-12-21T09:25:48.080Z,94.30
2017-12-21T09:26:50.543Z,94.38
2017-12-21T09:27:53.280Z,94.35
2017-12-21T09:28:55.767Z,94.23
2017-12-21T09:29:58.240Z,94.26
2017-12-21T09:31:00.700Z,94.48
2017-12-21T09:32:03.213Z,94.44
2017-12-21T09:33:05.688Z,94.20
2017-12-21T09:34:08.219Z,94.10
2017-12-21T09:35:10.694Z,94.10
2017-12-21T09:36:13.163Z,94.29
2017-12-21T09:37:15.663Z,94.07
2017-12-21T09:38:18.157Z,94.35
2017-12-21T09:39:20.629Z,94.53
2017-12-21T09:40:23.088Z,94.56
2017-12-21T09:41:25.568Z,94.83
2017-12-21T09:42:28.023Z,94.95
2017-12-21T09:43:30.502Z,94.69
2017-12-21T09:44:32.994Z,94.50
2017-12-21T09:45:35.452Z,94.44
2017-12-21T09:46:37.926Z,94.56
2017-12-21T09:47:40.432Z,94.68
2017-12-21T09:48:42.926Z,94.33
2017-12-21T09:49:45.378Z,94.33
2017-12-21T09:50:47.876Z,94.38
2017-12-21T09:51:54.667Z,94.40
2017-12-21T09:52:57.265Z,94.82
2017-12-21T09:54:00.129Z,94.44
2017-12-21T09:55:02.620Z,94.42
2017-12-21T09:56:05.133Z,94.21
2017-12-21T09:57:07.619Z,94.49
2017-12-21T09:58:10.128Z,94.32
2017-12-21T09:59:12.603Z,94.10
2017-12-21T10:00:15.107Z,93.79
2017-12-21T10:01:17.571Z,94.10
2017-12-21T10:02:20.034Z,94.25
2017-12-21T10:03:22.549Z,94.22
2017-12-21T10:04:25.307Z,94.48
2017-12-21T10:05:27.835Z,94.23
2017-12-21T10:06:30.620Z,94.08
2017-12-21T10:07:33.116Z,94.18
2017-12-21T10:08:35.580Z,93.85
2017-12-21T10:09:38.259Z,93.88
2017-12-21T10:10:40.753Z,93.91
2017-12-21T10:11:43.278Z,94.00
2017-12-21T10:12:45.754Z,94.10
2017-12-21T10:13:48.249Z,94.22
2017-12-21T10:14:50.710Z,94.10
2017-12-21T10:15:53.232Z,93.72
2017-12-21T10:16:55.745Z,93.66
2017-12-21T10:17:58.365Z,93.60
2017-12-21T10:19:00.845Z,93.75
2017-12-21T10:20:03.342Z,94.11
2017-12-21T10:21:05.883Z,94.04
2017-12-21T10:22:08.419Z,93.57
2017-12-21T10:23:10.917Z,93.57
2017-12-21T10:24:13.387Z,93.55
2017-12-21T10:25:15.902Z,93.55
2017-12-21T10:26:18.377Z,93.51
2017-12-21T10:27:20.896Z,93.56
2017-12-21T10:28:23.370Z,93.51
2017-12-21T10:29:25.953Z,93.49
2017-12-21T10:30:28.483Z,93.46
2017-12-21T10:31:31.822Z,93.54
2017-12-21T10:32:34.302Z,93.71
2017-12-21T10:33:36.765Z,93.85
2017-12-21T10:34:39.267Z,93.91
2017-12-21T10:35:41.781Z,93.92
2017-12-21T10:36:44.247Z,94.14
2017-12-21T10:37:46.736Z,94.31
2017-12-21T10:38:49.198Z,93.72
2017-12-21T10:39:51.673Z,93.78
2017-12-21T10:40:54.391Z,94.08
2017-12-21T10:41:57.326Z,93.90
2017-12-21T10:42:59.855Z,93.64
2017-12-21T10:44:02.330Z,93.74
2017-12-21T10:45:04.791Z,93.65
2017-12-21T10:46:07.258Z,93.79
2017-12-21T10:47:09.749Z,93.75
2017-12-21T10:48:12.242Z,93.58
2017-12-21T10:49:14.734Z,93.75
2017-12-21T10:50:17.221Z,93.61
2017-12-21T10:51:19.707Z,93.33
2017-12-21T10:52:22.194Z,93.54
2017-12-21T10:53:24.769Z,93.49
2017-12-21T10:54:27.289Z,93.45
2017-12-21T10:55:29.869Z,93.36
2017-12-21T10:56:32.329Z,93.71
2017-12-21T10:57:34.829Z,93.80
2017-12-21T10:58:37.290Z,93.72
2017-12-21T10:59:39.746Z,93.19
2017-12-21T11:00:42.274Z,92.96
2017-12-21T11:01:44.752Z,93.01
2017-12-21T11:02:47.215Z,92.70
2017-12-21T11:03:49.697Z,92.84
2017-12-21T11:04:52.205Z,93.21
2017-12-21T11:05:55.002Z,93.36
2017-12-21T11:06:57.498Z,93.55
2017-12-21T11:08:00.005Z,93.82
2017-12-21T11:09:02.562Z,94.03
2017-12-21T11:10:05.160Z,93.82
2017-12-21T11:11:07.893Z,93.50
2017-12-21T11:12:10.347Z,93.44
2017-12-21T11:13:12.819Z,93.28
2017-12-21T11:14:15.284Z,93.27
2017-12-21T11:15:17.771Z,93.41
2017-12-21T11:16:20.235Z,93.72
2017-12-21T11:17:22.709Z,93.52
2017-12-21T11:18:25.185Z,93.43
2017-12-21T11:19:27.676Z,93.60
2017-12-21T11:20:30.144Z,93.59
2017-12-21T11:21:32.618Z,93.60
2017-12-21T11:22:35.092Z,93.82
2017-12-21T11:23:37.581Z,93.85
2017-12-21T11:24:40.184Z,93.83
2017-12-21T11:25:42.780Z,93.56
2017-12-21T11:26:45.261Z,93.48
2017-12-21T11:27:47.761Z,93.45
2017-12-21T11:28:50.231Z,93.49
2017-12-21T11:29:52.710Z,93.50
2017-12-21T11:30:55.219Z,93.46
2017-12-21T11:31:57.700Z,93.51
2017-12-21T11:33:00.187Z,93.05
2017-12-21T11:34:02.656Z,93.12
2017-12-21T11:35:05.118Z,93.22
2017-12-21T11:36:07.590Z,93.54
2017-12-21T11:37:10.061Z,93.74
2017-12-21T11:38:12.638Z,93.95
2017-12-21T11:39:15.137Z,94.07
2017-12-21T11:40:17.616Z,93.95
2017-12-21T11:41:20.074Z,93.70
2017-12-21T11:42:22.557Z,93.60
2017-12-21T11:43:25.032Z,93.47
2017-12-21T11:44:27.513Z,93.48
2017-12-21T11:45:29.974Z,93.50
2017-12-21T11:46:32.532Z,93.71
2017-12-21T11:47:35.024Z,93.48
2017-12-21T11:48:37.478Z,93.63
2017-12-21T11:49:41.310Z,93.37
2017-12-21T11:50:43.809Z,93.32
2017-12-21T11:51:46.288Z,93.30
2017-12-21T11:52:48.764Z,93.21
2017-12-21T11:53:51.240Z,93.31
2017-12-21T11:54:53.725Z,93.62
2017-12-21T11:55:56.207Z,94.09
2017-12-21T11:56:58.672Z,94.22
2017-12-21T11:58:01.147Z,93.69
2017-12-21T11:59:03.673Z,93.88
2017-12-21T12:00:06.153Z,94.02
2017-12-21T12:01:08.607Z,94.15
2017-12-21T12:02:11.071Z,94.41
2017-12-21T12:03:13.534Z,94.36
2017-12-21T12:04:16.171Z,94.37
2017-12-21T12:05:18.627Z,95.03
2017-12-21T12:06:21.190Z,94.93
2017-12-21T12:07:23.665Z,94.62
2017-12-21T12:08:26.202Z,93.88
2017-12-21T12:09:28.667Z,94.06
2017-12-21T12:10:31.127Z,94.75
2017-12-21T12:11:33.639Z,95.33
2017-12-21T12:12:36.116Z,95.53
2017-12-21T12:13:38.587Z,95.01
2017-12-21T12:14:41.042Z,94.74
2017-12-21T12:15:44.364Z,94.99
2017-12-21T12:16:46.839Z,95.52
2017-12-21T12:17:49.320Z,95.63
2017-12-21T12:18:51.782Z,95.53
2017-12-21T12:19:54.373Z,95.71
2017-12-21T12:20:56.839Z,95.91
2017-12-21T12:21:59.310Z,96.00
2017-12-21T12:23:01.792Z,96.13
2017-12-21T12:24:04.251Z,95.72
2017-12-21T12:25:06.800Z,95.39
2017-12-21T12:26:09.285Z,94.24
2017-12-21T12:27:11.746Z,93.99
2017-12-21T12:28:14.310Z,93.48
2017-12-21T12:29:16.784Z,93.88
2017-12-21T12:30:19.261Z,93.66
2017-12-21T12:31:21.728Z,93.92
2017-12-21T12:32:24.329Z,93.96
2017-12-21T12:33:26.859Z,94.05
2017-12-21T12:34:29.327Z,93.96
2017-12-21T12:35:31.819Z,93.61
2017-12-21T12:36:34.294Z,93.42
2017-12-21T12:37:36.767Z,93.24
2017-12-21T12:38:39.252Z,93.35
2017-12-21T12:39:41.726Z,93.34
2017-12-21T12:40:44.183Z,93.41
2017-12-21T12:41:46.696Z,92.99
2017-12-21T12:42:49.162Z,93.01
2017-12-21T12:43:51.650Z,92.75
2017-12-21T12:44:54.139Z,93.28
2017-12-21T12:45:56.631Z,93.96
2017-12-21T12:46:59.103Z,94.08
2017-12-21T12:48:01.593Z,94.09
2017-12-21T12:49:04.067Z,93.66
2017-12-21T12:50:06.540Z,93.60
2017-12-21T12:51:09.017Z,93.80
2017-12-21T12:52:11.494Z,93.68
2017-12-21T12:53:14.008Z,93.41
2017-12-21T12:54:16.634Z,93.63
2017-12-21T12:55:19.094Z,94.08
2017-12-21T12:56:21.559Z,94.92
2017-12-21T12:57:24.023Z,95.24
2017-12-21T12:58:26.496Z,94.84
2017-12-21T12:59:28.968Z,94.86
2017-12-21T13:00:31.441Z,95.18
2017-12-21T13:01:33.927Z,95.11
2017-12-21T13:02:36.410Z,94.99
2017-12-21T13:03:38.941Z,95.14
2017-12-21T13:04:41.408Z,95.21
2017-12-21T13:05:43.939Z,94.43
2017-12-21T13:06:46.417Z,94.69
2017-12-21T13:07:48.896Z,95.03
2017-12-21T13:08:51.367Z,95.77
2017-12-21T13:09:53.849Z,96.07
2017-12-21T13:10:56.340Z,95.67
2017-12-21T13:11:58.846Z,96.03
2017-12-21T13:13:01.325Z,96.15
2017-12-21T13:14:03.811Z,96.46
2017-12-21T13:15:06.275Z,96.77
2017-12-21T13:16:08.761Z,97.05
2017-12-21T13:17:11.234Z,96.78
2017-12-21T13:18:13.721Z,96.38
2017-12-21T13:19:16.177Z,95.87
2017-12-21T13:20:18.660Z,95.49
2017-12-21T13:21:21.125Z,95.31
2017-12-21T13:22:23.602Z,95.86
2017-12-21T13:23:26.085Z,96.24
2017-12-21T13:24:28.572Z,96.05
2017-12-21T13:25:31.030Z,95.53